createdAt,value
2019-03-10T00:00:08.931Z,1.50
2019-03-10T00:03:09.763Z,1.27
2019-03-10T00:05:45.646Z,1.43
2019-03-10T00:08:17.928Z,1.33
2019-03-10T00:10:50.945Z,1.40
2019-03-10T00:13:22.726Z,1.53
2019-03-10T00:15:54.383Z,1.37
2019-03-10T00:18:27.243Z,1.10
2019-03-10T00:20:58.902Z,1.70
2019-03-10T00:23:30.601Z,1.90
2019-03-10T00:26:02.254Z,1.63
2019-03-10T00:28:33.934Z,1.80
2019-03-10T00:31:05.595Z,1.47
2019-03-10T00:33:37.258Z,1.50
2019-03-10T00:36:08.915Z,1.77
2019-03-10T00:39:15.066Z,1.60
2019-03-10T00:42:34.250Z,1.33
2019-03-10T00:45:45.095Z,1.27
2019-03-10T00:49:04.203Z,2.00
2019-03-10T00:52:16.838Z,1.50
2019-03-10T00:54:48.509Z,2.00
2019-03-10T00:57:20.282Z,1.43
2019-03-10T00:59:52.044Z,1.23
2019-03-10T01:02:23.702Z,1.57
2019-03-10T01:04:55.363Z,1.80
2019-03-10T01:07:27.026Z,1.40
2019-03-10T01:09:58.802Z,2.10
2019-03-10T01:12:30.552Z,1.57
2019-03-10T01:15:02.563Z,1.83
2019-03-10T01:17:34.611Z,1.73
2019-03-10T01:20:07.071Z,2.03
2019-03-10T01:22:38.847Z,1.70
2019-03-10T01:25:10.708Z,2.20
2019-03-10T01:27:42.366Z,1.83
2019-03-10T01:30:16.354Z,1.40
2019-03-10T01:33:10.647Z,1.20
2019-03-10T01:35:42.696Z,1.17
2019-03-10T01:38:14.462Z,1.20
2019-03-10T01:40:46.127Z,1.40
2019-03-10T01:43:17.776Z,1.90
2019-03-10T01:45:49.444Z,1.57
2019-03-10T01:48:21.095Z,1.07
2019-03-10T01:50:52.759Z,1.00
2019-03-10T01:53:25.761Z,1.10
2019-03-10T01:55:57.678Z,1.10
2019-03-10T01:58:29.327Z,1.33
2019-03-10T02:01:01.005Z,1.60
2019-03-10T02:03:32.667Z,1.47
2019-03-10T02:06:04.341Z,1.30
2019-03-10T02:08:35.991Z,1.57
2019-03-10T02:11:07.653Z,1.17
2019-03-10T02:13:39.310Z,2.20
2019-03-10T02:16:10.979Z,1.80
2019-03-10T02:18:42.630Z,1.57
2019-03-10T02:21:14.311Z,1.47
2019-03-10T02:23:45.974Z,1.73
2019-03-10T02:26:17.635Z,1.50
2019-03-10T02:28:49.315Z,1.63
2019-03-10T02:31:20.988Z,1.33
2019-03-10T02:33:52.743Z,0.70
2019-03-10T02:36:24.404Z,0.90
2019-03-10T02:38:56.089Z,1.13
2019-03-10T02:41:28.542Z,1.13
2019-03-10T02:44:00.234Z,1.83
2019-03-10T02:46:32.067Z,2.37
2019-03-10T02:49:03.716Z,1.43
2019-03-10T02:51:35.388Z,1.60
2019-03-10T02:54:07.043Z,1.53
2019-03-10T02:56:38.717Z,1.97
2019-03-10T02:59:10.375Z,1.67
2019-03-10T03:01:42.043Z,1.70
2019-03-10T03:04:13.701Z,1.83
2019-03-10T03:06:45.367Z,2.10
2019-03-10T03:09:17.026Z,2.47
2019-03-10T03:11:48.793Z,1.87
2019-03-10T03:14:20.446Z,2.03
2019-03-10T03:16:53.003Z,2.07
2019-03-10T03:19:24.719Z,2.90
2019-03-10T03:21:56.383Z,2.20
2019-03-10T03:24:28.034Z,3.00
2019-03-10T03:27:02.364Z,2.73
2019-03-10T03:29:33.271Z,2.83
2019-03-10T03:32:04.940Z,2.80
2019-03-10T03:34:36.592Z,2.30
2019-03-10T03:37:11.402Z,2.50
2019-03-10T03:39:45.856Z,4.70
2019-03-10T03:42:17.590Z,2.57
2019-03-10T03:44:49.246Z,2.90
2019-03-10T03:47:20.911Z,3.27
2019-03-10T03:49:52.660Z,3.80
2019-03-10T03:52:24.336Z,3.57
2019-03-10T03:54:56.078Z,2.90
2019-03-10T03:57:27.744Z,2.70
2019-03-10T03:59:59.400Z,3.60
2019-03-10T04:02:39.360Z,4.23
2019-03-10T04:05:11.327Z,3.60
2019-03-10T04:07:42.982Z,3.10
2019-03-10T04:10:14.664Z,3.37
2019-03-10T04:12:46.359Z,3.90
2019-03-10T04:15:18.116Z,3.47
2019-03-10T04:17:49.779Z,3.90
2019-03-10T04:20:21.442Z,4.10
2019-03-10T04:22:53.118Z,3.10
2019-03-10T04:25:24.871Z,3.97
2019-03-10T04:27:56.526Z,4.07
2019-03-10T04:30:28.205Z,4.43
2019-03-10T04:32:59.870Z,3.43
2019-03-10T04:35:31.523Z,4.50
2019-03-10T04:38:03.196Z,4.03
2019-03-10T04:40:34.851Z,4.73
2019-03-10T04:43:06.764Z,4.10
2019-03-10T04:45:38.420Z,3.70
2019-03-10T04:48:10.086Z,3.43
2019-03-10T04:50:41.755Z,5.30
2019-03-10T04:53:13.430Z,5.03
2019-03-10T04:55:50.011Z,4.47
2019-03-10T04:58:21.750Z,5.17
2019-03-10T05:00:55.039Z,3.67
2019-03-10T05:03:26.783Z,4.37
2019-03-10T05:05:58.447Z,5.40
2019-03-10T05:08:30.170Z,3.90
2019-03-10T05:11:01.827Z,3.90
2019-03-10T05:13:33.499Z,3.50
2019-03-10T05:16:05.179Z,4.10
2019-03-10T05:18:36.938Z,4.77
2019-03-10T05:21:08.618Z,4.90
2019-03-10T05:23:41.471Z,4.67
2019-03-10T05:26:14.278Z,4.37
2019-03-10T05:28:46.563Z,3.57
2019-03-10T05:31:18.244Z,4.47
2019-03-10T05:33:49.915Z,4.00
2019-03-10T05:36:21.582Z,4.33
2019-03-10T05:38:53.262Z,4.03
2019-03-10T05:41:24.906Z,4.03
2019-03-10T05:43:58.741Z,4.10
2019-03-10T05:46:30.122Z,4.57
2019-03-10T05:49:01.806Z,4.40
2019-03-10T05:51:33.550Z,4.27
2019-03-10T05:54:05.225Z,3.60
2019-03-10T05:56:36.887Z,4.07
2019-03-10T05:59:08.555Z,4.33
2019-03-10T06:01:40.214Z,3.20
2019-03-10T06:04:11.888Z,4.00
2019-03-10T06:06:43.547Z,4.23
2019-03-10T06:09:15.218Z,3.67
2019-03-10T06:11:46.863Z,3.60
2019-03-10T06:14:18.540Z,3.93
2019-03-10T06:16:50.203Z,3.70
2019-03-10T06:19:21.874Z,3.50
2019-03-10T06:21:53.528Z,3.60
2019-03-10T06:24:25.198Z,4.57
2019-03-10T06:26:57.032Z,3.03
2019-03-10T06:29:28.695Z,3.33
2019-03-10T06:32:00.364Z,3.23
2019-03-10T06:34:32.039Z,3.67
2019-03-10T06:37:03.716Z,2.93
2019-03-10T06:39:35.392Z,3.30
2019-03-10T06:42:07.043Z,3.47
2019-03-10T06:44:38.722Z,3.00
2019-03-10T06:47:10.451Z,3.60
2019-03-10T06:49:42.116Z,3.67
2019-03-10T06:52:13.775Z,3.60
2019-03-10T06:54:45.443Z,3.53
2019-03-10T06:57:17.112Z,4.03
2019-03-10T06:59:50.023Z,3.23
2019-03-10T07:02:21.963Z,4.20
2019-03-10T07:04:53.635Z,4.10
2019-03-10T07:07:25.299Z,4.07
2019-03-10T07:09:56.978Z,4.00
2019-03-10T07:12:28.683Z,4.77
2019-03-10T07:15:00.445Z,3.60
2019-03-10T07:17:32.115Z,4.27
2019-03-10T07:20:05.446Z,3.63
2019-03-10T07:22:37.111Z,3.40
2019-03-10T07:25:09.011Z,3.83
2019-03-10T07:27:50.131Z,4.53
2019-03-10T07:30:38.313Z,3.87
2019-03-10T07:33:21.223Z,3.70
2019-03-10T07:36:11.178Z,3.77
2019-03-10T07:39:08.440Z,3.60
2019-03-10T07:41:58.400Z,3.43
2019-03-10T07:44:38.160Z,3.23
2019-03-10T07:47:28.198Z,3.87
2019-03-10T07:50:11.287Z,4.00
2019-03-10T07:53:01.256Z,3.33
2019-03-10T07:55:42.046Z,4.20
2019-03-10T07:58:42.362Z,4.27
2019-03-10T08:01:36.451Z,3.27
2019-03-10T08:04:26.419Z,3.47
2019-03-10T08:07:16.024Z,3.80
2019-03-10T08:10:05.927Z,3.37
2019-03-10T08:13:03.266Z,2.40
2019-03-10T08:15:45.387Z,2.87
2019-03-10T08:18:35.243Z,3.20
2019-03-10T08:21:16.635Z,2.80
2019-03-10T08:24:06.479Z,3.50
2019-03-10T08:26:44.402Z,3.17
2019-03-10T08:29:34.780Z,2.83
2019-03-10T08:32:22.802Z,2.77
2019-03-10T08:35:06.123Z,2.70
2019-03-10T08:37:58.939Z,2.20
2019-03-10T08:40:39.183Z,2.77
2019-03-10T08:43:24.097Z,2.60
2019-03-10T08:46:15.532Z,2.50
2019-03-10T08:49:03.036Z,2.17
2019-03-10T08:51:41.711Z,3.00
2019-03-10T08:54:25.667Z,2.50
2019-03-10T08:57:15.692Z,3.13
2019-03-10T09:00:07.069Z,2.80
2019-03-10T09:03:02.858Z,3.00
2019-03-10T09:05:43.551Z,2.97
2019-03-10T09:08:29.360Z,3.33
2019-03-10T09:11:18.955Z,2.40
2019-03-10T09:14:08.305Z,3.20
2019-03-10T09:17:04.649Z,2.40
2019-03-10T09:19:42.838Z,3.27
2019-03-10T09:22:26.203Z,2.23
2019-03-10T09:25:17.675Z,2.80
2019-03-10T09:27:56.556Z,2.40
2019-03-10T09:30:52.376Z,3.10
2019-03-10T09:33:33.978Z,3.90
2019-03-10T09:36:12.901Z,2.83
2019-03-10T09:39:22.037Z,3.90
2019-03-10T09:42:11.768Z,4.23
2019-03-10T09:44:53.605Z,6.17
2019-03-10T09:47:46.550Z,4.40
2019-03-10T09:50:31.963Z,3.60
2019-03-10T09:53:26.042Z,4.40
2019-03-10T09:56:08.863Z,3.97
2019-03-10T09:58:58.915Z,3.40
2019-03-10T10:01:41.813Z,4.17
2019-03-10T10:04:34.987Z,4.10
2019-03-10T10:07:17.107Z,3.83
2019-03-10T10:09:55.491Z,4.73
2019-03-10T10:12:34.328Z,4.30
2019-03-10T10:15:37.855Z,5.23
2019-03-10T10:18:41.196Z,5.27
2019-03-10T10:21:19.335Z,4.33
2019-03-10T10:24:11.991Z,4.67
2019-03-10T10:26:49.206Z,4.00
2019-03-10T10:29:43.579Z,4.27
2019-03-10T10:32:22.582Z,3.77
2019-03-10T10:35:13.957Z,2.70
2019-03-10T10:38:18.542Z,2.90
2019-03-10T10:40:53.775Z,3.23
2019-03-10T10:44:00.147Z,3.07
2019-03-10T10:46:47.779Z,2.93
2019-03-10T10:49:28.364Z,3.27
2019-03-10T10:52:16.378Z,3.43
2019-03-10T10:54:56.178Z,2.90
2019-03-10T10:57:40.500Z,2.10
2019-03-10T11:00:22.927Z,2.40
2019-03-10T11:03:15.139Z,2.50
2019-03-10T11:05:53.778Z,2.47
2019-03-10T11:08:35.211Z,2.43
2019-03-10T11:11:22.038Z,2.67
2019-03-10T11:14:14.099Z,2.83
2019-03-10T11:17:03.863Z,1.97
2019-03-10T11:20:01.168Z,2.77
2019-03-10T11:22:48.148Z,2.90
2019-03-10T11:25:54.523Z,3.50
2019-03-10T11:28:45.892Z,3.30
2019-03-10T11:31:52.407Z,3.23
2019-03-10T11:34:29.430Z,2.57
2019-03-10T11:37:21.268Z,2.70
2019-03-10T11:40:17.347Z,3.00
2019-03-10T11:43:11.604Z,2.93
2019-03-10T11:46:01.809Z,3.13
2019-03-10T11:49:02.153Z,2.70
2019-03-10T11:51:59.511Z,2.37
2019-03-10T11:55:05.766Z,2.47
2019-03-10T11:58:03.026Z,3.30
2019-03-10T12:00:54.483Z,2.63
2019-03-10T12:03:44.006Z,2.97
2019-03-10T12:06:38.353Z,3.20
2019-03-10T12:09:22.566Z,2.63
2019-03-10T12:11:54.335Z,2.80
2019-03-10T12:14:26.022Z,2.73
2019-03-10T12:16:57.694Z,3.07
2019-03-10T12:19:29.386Z,2.70
2019-03-10T12:22:01.048Z,2.63
2019-03-10T12:24:32.822Z,2.90
2019-03-10T12:27:04.699Z,2.90
2019-03-10T12:29:36.378Z,2.67
2019-03-10T12:32:08.063Z,4.00
2019-03-10T12:34:39.746Z,3.23
2019-03-10T12:37:11.415Z,2.57
2019-03-10T12:39:43.094Z,2.67
2019-03-10T12:42:14.757Z,2.60
2019-03-10T12:44:46.487Z,2.40
2019-03-10T12:47:18.170Z,2.50
2019-03-10T12:49:49.840Z,2.80
2019-03-10T12:52:21.492Z,2.97
2019-03-10T12:54:53.178Z,2.33
2019-03-10T12:57:24.855Z,2.00
2019-03-10T12:59:56.537Z,2.00
2019-03-10T13:02:28.197Z,2.40
2019-03-10T13:04:59.872Z,2.80
2019-03-10T13:07:31.525Z,2.50
2019-03-10T13:10:03.311Z,3.00
2019-03-10T13:12:34.969Z,3.53
2019-03-10T13:15:07.527Z,3.47
2019-03-10T13:17:39.191Z,3.57
2019-03-10T13:20:10.970Z,3.40
2019-03-10T13:22:42.643Z,3.20
2019-03-10T13:25:14.329Z,3.43
2019-03-10T13:27:45.999Z,3.57
2019-03-10T13:30:17.783Z,3.77
2019-03-10T13:32:49.451Z,3.57
2019-03-10T13:35:21.243Z,3.60
2019-03-10T13:37:52.911Z,3.50
2019-03-10T13:40:24.579Z,3.40
2019-03-10T13:42:56.239Z,3.50
2019-03-10T13:45:28.013Z,3.27
2019-03-10T13:47:59.667Z,3.87
2019-03-10T13:50:31.350Z,2.70
2019-03-10T13:53:03.119Z,2.87
2019-03-10T13:55:34.795Z,2.60
2019-03-10T13:58:06.454Z,3.03
2019-03-10T14:00:38.323Z,3.10
2019-03-10T14:03:10.116Z,3.00
2019-03-10T14:05:41.802Z,2.90
2019-03-10T14:08:13.568Z,2.63
2019-03-10T14:10:45.235Z,2.33
2019-03-10T14:13:16.891Z,2.60
2019-03-10T14:15:48.559Z,2.67
2019-03-10T14:18:20.211Z,3.63
2019-03-10T14:20:51.904Z,3.03
2019-03-10T14:23:23.575Z,2.77
2019-03-10T14:25:55.274Z,2.53
2019-03-10T14:28:26.930Z,3.00
2019-03-10T14:30:58.703Z,3.03
2019-03-10T14:33:30.386Z,2.80
2019-03-10T14:36:02.089Z,2.83
2019-03-10T14:38:33.752Z,3.33
2019-03-10T14:41:05.537Z,2.53
2019-03-10T14:43:37.184Z,2.30
2019-03-10T14:46:09.003Z,2.10
2019-03-10T14:48:40.667Z,2.40
2019-03-10T14:51:14.531Z,2.93
2019-03-10T14:53:46.316Z,3.63
2019-03-10T14:56:18.109Z,3.00
2019-03-10T14:58:49.781Z,3.03
2019-03-10T15:01:22.440Z,3.53
2019-03-10T15:03:54.212Z,3.53
2019-03-10T15:06:25.888Z,4.00
2019-03-10T15:08:57.548Z,3.80
2019-03-10T15:11:29.298Z,3.87
2019-03-10T15:14:01.055Z,3.40
2019-03-10T15:16:32.736Z,4.13
2019-03-10T15:19:05.187Z,3.93
2019-03-10T15:21:36.862Z,3.90
2019-03-10T15:24:08.544Z,2.83
2019-03-10T15:26:45.548Z,3.37
2019-03-10T15:29:13.780Z,3.30
2019-03-10T15:31:45.476Z,3.93
2019-03-10T15:34:17.253Z,4.07
2019-03-10T15:36:48.925Z,4.13
2019-03-10T15:39:20.583Z,3.07
2019-03-10T15:41:52.282Z,3.00
2019-03-10T15:44:23.983Z,2.63
2019-03-10T15:46:55.651Z,3.23
2019-03-10T15:49:27.320Z,3.13
2019-03-10T15:51:59.011Z,2.90
2019-03-10T15:54:30.674Z,2.50
2019-03-10T15:57:02.448Z,2.70
2019-03-10T15:59:34.116Z,3.20
2019-03-10T16:02:05.810Z,3.50
2019-03-10T16:04:37.580Z,3.17
2019-03-10T16:07:09.338Z,3.50
2019-03-10T16:09:41.052Z,3.33
2019-03-10T16:12:12.711Z,4.13
2019-03-10T16:14:44.380Z,3.23
2019-03-10T16:17:16.076Z,3.50
2019-03-10T16:19:47.744Z,5.20
2019-03-10T16:22:19.687Z,4.17
2019-03-10T16:24:51.345Z,4.20
2019-03-10T16:27:23.040Z,6.10
2019-03-10T16:29:54.699Z,4.80
2019-03-10T16:32:26.379Z,4.90
2019-03-10T16:34:58.074Z,4.40
2019-03-10T16:37:29.847Z,4.33
2019-03-10T16:40:01.870Z,4.60
2019-03-10T16:42:33.565Z,4.63
2019-03-10T16:45:07.647Z,4.20
2019-03-10T16:47:39.335Z,5.00
2019-03-10T16:50:12.335Z,4.53
2019-03-10T16:52:44.044Z,3.50
2019-03-10T16:55:15.833Z,5.77
2019-03-10T16:57:47.774Z,5.63
2019-03-10T17:00:20.901Z,2.90
2019-03-10T17:02:52.608Z,2.50
2019-03-10T17:05:24.412Z,3.07
2019-03-10T17:07:56.217Z,3.73
2019-03-10T17:10:27.915Z,3.70
2019-03-10T17:12:59.635Z,3.00
2019-03-10T17:15:31.321Z,2.70
2019-03-10T17:18:03.243Z,3.40
2019-03-10T17:20:35.013Z,3.47
2019-03-10T17:23:06.765Z,3.07
2019-03-10T17:25:38.589Z,3.97
2019-03-10T17:28:10.299Z,3.47
2019-03-10T17:30:42.071Z,3.83
2019-03-10T17:33:13.779Z,3.53
2019-03-10T17:35:45.486Z,4.03
2019-03-10T17:38:17.281Z,3.77
2019-03-10T17:40:48.977Z,4.70
2019-03-10T17:43:20.681Z,7.87
2019-03-10T17:45:52.406Z,6.57
2019-03-10T17:48:24.121Z,7.07
2019-03-10T17:50:55.890Z,9.47
2019-03-10T17:53:27.809Z,6.33
2019-03-10T17:55:59.554Z,5.00
2019-03-10T17:58:33.897Z,2.60
2019-03-10T18:01:05.240Z,2.50
2019-03-10T18:03:37.271Z,2.30
2019-03-10T18:06:09.218Z,2.47
2019-03-10T18:08:41.492Z,2.17
2019-03-10T18:11:13.551Z,2.30
2019-03-10T18:13:45.844Z,3.10
2019-03-10T18:16:17.980Z,2.63
2019-03-10T18:18:49.937Z,2.80
2019-03-10T18:21:22.284Z,3.27
2019-03-10T18:23:54.704Z,2.83
2019-03-10T18:26:26.723Z,2.23
2019-03-10T18:28:58.612Z,2.43
2019-03-10T18:31:30.559Z,2.10
2019-03-10T18:34:02.931Z,2.00
2019-03-10T18:36:34.978Z,3.03
2019-03-10T18:39:07.015Z,3.00
2019-03-10T18:41:39.015Z,3.00
2019-03-10T18:44:11.300Z,4.07
2019-03-10T18:46:43.191Z,3.23
2019-03-10T18:49:15.094Z,4.30
2019-03-10T18:51:47.238Z,4.70
2019-03-10T18:54:19.742Z,4.50
2019-03-10T18:56:51.557Z,6.57
2019-03-10T18:59:23.669Z,7.57
2019-03-10T19:01:56.038Z,7.03
2019-03-10T19:04:27.903Z,7.60
2019-03-10T19:07:00.058Z,6.67
2019-03-10T19:09:32.040Z,8.90
2019-03-10T19:12:04.119Z,7.10
2019-03-10T19:14:36.132Z,7.10
2019-03-10T19:17:08.167Z,6.80
2019-03-10T19:19:40.335Z,6.97
2019-03-10T19:22:12.784Z,8.90
2019-03-10T19:24:44.972Z,21.07
2019-03-10T19:27:16.799Z,19.70
2019-03-10T19:29:48.733Z,11.27
2019-03-10T19:32:20.687Z,8.03
2019-03-10T19:34:52.999Z,9.13
2019-03-10T19:37:25.327Z,9.23
2019-03-10T19:39:57.950Z,12.97
2019-03-10T19:42:29.981Z,13.17
2019-03-10T19:45:02.113Z,11.97
2019-03-10T19:47:34.431Z,12.53
2019-03-10T19:50:07.977Z,10.90
2019-03-10T19:52:40.447Z,9.30
2019-03-10T19:55:12.970Z,8.47
2019-03-10T19:57:45.848Z,9.03
2019-03-10T20:00:18.634Z,7.50
2019-03-10T20:02:51.130Z,8.53
2019-03-10T20:05:23.370Z,7.27
2019-03-10T20:07:55.729Z,6.97
2019-03-10T20:10:28.152Z,6.80
2019-03-10T20:13:00.156Z,7.20
2019-03-10T20:15:32.504Z,5.70
2019-03-10T20:18:04.747Z,6.23
2019-03-10T20:20:37.682Z,6.87
2019-03-10T20:23:10.338Z,7.37
2019-03-10T20:25:43.078Z,6.70
2019-03-10T20:28:15.613Z,5.20
2019-03-10T20:30:48.079Z,4.73
2019-03-10T20:33:20.431Z,4.63
2019-03-10T20:35:52.625Z,4.27
2019-03-10T20:38:25.474Z,4.57
2019-03-10T20:40:57.746Z,4.17
2019-03-10T20:43:30.185Z,5.07
2019-03-10T20:46:02.212Z,5.17
2019-03-10T20:48:34.704Z,5.43
2019-03-10T20:51:06.736Z,6.10
2019-03-10T20:53:38.496Z,5.27
2019-03-10T20:56:10.306Z,4.50
2019-03-10T20:58:42.192Z,4.37
2019-03-10T21:01:14.195Z,5.30
2019-03-10T21:03:46.048Z,4.83
2019-03-10T21:06:18.019Z,4.97
2019-03-10T21:08:50.018Z,6.03
2019-03-10T21:11:21.984Z,5.47
2019-03-10T21:13:53.791Z,4.17
2019-03-10T21:16:25.705Z,5.30
2019-03-10T21:18:57.438Z,5.67
2019-03-10T21:21:29.136Z,5.07
2019-03-10T21:24:00.807Z,4.87
2019-03-10T21:26:32.528Z,6.10
2019-03-10T21:29:04.225Z,4.83
2019-03-10T21:31:36.009Z,5.60
2019-03-10T21:34:07.675Z,4.67
2019-03-10T21:36:39.384Z,4.80
2019-03-10T21:39:11.157Z,4.13
2019-03-10T21:41:42.849Z,5.30
2019-03-10T21:44:25.717Z,5.87
2019-03-10T21:46:49.940Z,5.70
2019-03-10T21:49:21.687Z,6.07
2019-03-10T21:51:53.364Z,5.97
2019-03-10T21:54:25.033Z,6.80
2019-03-10T21:56:56.716Z,6.60
2019-03-10T21:59:28.399Z,6.87
2019-03-10T22:02:00.099Z,6.80
2019-03-10T22:04:31.784Z,7.30
2019-03-10T22:07:03.579Z,7.83
2019-03-10T22:09:35.327Z,9.00
2019-03-10T22:12:06.998Z,9.07
2019-03-10T22:14:38.669Z,9.87
2019-03-10T22:17:10.351Z,10.23
2019-03-10T22:19:41.999Z,10.80
2019-03-10T22:22:13.682Z,12.50
2019-03-10T22:24:45.351Z,13.07
2019-03-10T22:27:17.015Z,12.50
2019-03-10T22:29:48.659Z,12.67
2019-03-10T22:32:20.337Z,13.13
2019-03-10T22:34:52.008Z,11.90
2019-03-10T22:37:23.703Z,11.07
2019-03-10T22:39:55.367Z,11.03
2019-03-10T22:42:27.042Z,10.57
2019-03-10T22:44:58.699Z,11.67
2019-03-10T22:47:30.466Z,12.03
2019-03-10T22:50:03.005Z,11.03
2019-03-10T22:52:35.043Z,10.37
2019-03-10T22:55:07.200Z,11.03
2019-03-10T22:57:38.932Z,12.03
2019-03-10T23:00:15.384Z,10.83
2019-03-10T23:02:47.168Z,10.20
2019-03-10T23:05:18.940Z,10.43
2019-03-10T23:07:50.611Z,9.77
2019-03-10T23:10:22.284Z,10.37
2019-03-10T23:12:53.980Z,9.53
2019-03-10T23:15:25.659Z,8.93
2019-03-10T23:17:57.338Z,8.17
2019-03-10T23:20:29.024Z,9.33
2019-03-10T23:23:00.714Z,8.13
2019-03-10T23:25:32.386Z,8.03
2019-03-10T23:28:04.070Z,7.50
2019-03-10T23:30:35.732Z,7.47
2019-03-10T23:33:07.427Z,8.53
2019-03-10T23:35:39.095Z,8.13
2019-03-10T23:38:10.795Z,8.40
2019-03-10T23:40:42.446Z,10.07
2019-03-10T23:43:14.107Z,10.13
2019-03-10T23:45:45.763Z,10.03
2019-03-10T23:48:17.451Z,9.43
2019-03-10T23:50:49.110Z,9.73
2019-03-10T23:53:20.780Z,9.50
2019-03-10T23:55:52.433Z,9.90
2019-03-10T23:58:24.117Z,9.57
